Saransk, Russia
Current Conditions -  °F | °C
As of 4:00 PM on Thursday 27 Nov 2014 (Local Time) from UWLW Reporting Station
Light Snow Light Snow  
Wind Chill: 13°   Ceiling: 1100
Heat Index: 19°   Visibility: 3mi
Dew Point: 18°   Wind: 4mph
Humidity: 93%   Direction: 180°S
Pressure: 30.56"   Gusts: NA
Location:  54.18°N, 45.18°E
Report Text: UWLW 271300Z 18002MPS 5000 -SN BR OVC011 M07/M08 Q1035 20490250NOSIG RMK QFE770
Loading
Personal Weather Stations






























Interactive Weather Map New forecast layout! Learn more

10-Day Weather Forecast

Advertisements
Track Severe Weather on mobile